Atlantic - Newfoundland: Past 24 Hour Conditions

 

Natashquan Airport

03:00 PM EDT 20 April 2014
This table is a summary of hourly weather conditions for the past 24 hours.
Date / Time
(EDT)
Wind(knots) Conditions Visibility(km) Pressure(kPa) Air tempC) Relative humidity(%) Dew pointC) Wind Chill
20 April 2014
15:00 W 23 gust 33 Sunny 16 102.2 0 70 -5 *
14:00 WSW 23 gust 30 Sunny 16 102.2 0 74 -4 -8
13:00 W 18 gust 25 Sunny 16 102.2 1 68 -5 *
12:00 W 19 gust 25 Sunny 16 102.3 0 65 -6 -7
11:00 WNW 15 gust 21 Sunny 16 102.4 1 39 -12 *
10:00 NW 14 gust 19 Sunny 16 102.4 -1 43 -12 -7
9:00 WNW 9 gust 15 Sunny 16 102.5 -2 50 -11 -8
8:00 W 9 Sunny 16 102.5 -4 60 -11 -10
7:00 W 8 Sunny 16 102.5 -5 61 -12 -11
6:00 WNW 7 Sunny 16 102.5 -6 64 -12 -12
5:00 WNW 12 Clear 16 102.4 -6 66 -12 -14
4:00 NNW 8 Clear 16 102.3 -5 57 -12 -11
3:00 N 10 gust 15 Clear 16 102.2 -5 58 -12 -11
2:00 N 13 gust 18 Clear 16 102.2 -4 56 -11 -10
1:00 N 17 gust 24 Clear 16 102.0 -2 57 -10 -10
0:00 N 14 gust 20 Clear 16 102.0 -1 64 -7 -7
19 April 2014
23:00 NNW 11 Mainly Clear 16 102.0 0 92 -2 -6
22:00 NW 7 Mostly Cloudy 16 101.9 -1 98 -1 -5
21:00 WNW 8 Light Snow 10 101.8 -1 98 -1 -5
20:00 WNW 8 Light Snow 8 101.8 -1 97 -1 -5
19:00 W 5 Light Snow 11 101.8 -1 96 -1 -4
18:00 WSW 4 Light Snow 6 101.7 0 95 -1 -3
17:00 W 3 Light Rain 16 101.7 0 92 -1 *
16:00 calm Light Snow 5 101.7 0 91 -1 *
15:00 SE 2 Cloudy 16 101.7 1 85 -2 *
 
Map of Atlantic - Newfoundland marine weather areas Southwestern Grand Banks - 44138 Banquereau - 44139 Tail of the Bank - 44140 Nickerson Bank - 44251 Northeast Burgeo Bank - 44255 Blanc-Sablon Airport Cap Whittle Chevery Natashquan Airport Heath Point Miscou Island Grand Étang Ingonish Beach North Mountain St.Paul Island J.A. Douglas McCurdy Sydney Airport Charlottetown Airport East Point North Cape Argentia Bonavista Burgeo Cape Race Corner Brook Daniel's Harbour Englee Ferolle Point La Scie Port aux Basques Rocky Harbour Sagona Island St. Anthony Airport St. John's Int'l Airport St. Lawrence Stephenville Airport Twillingate Winterland Wreckhouse Cartwright Airport Mary's Harbour Grates Cove Pool's Island Marticot Island Long Pond Îles de la Madeleine Airport
Legend: buoyBuoy land stationLand Station